sensor_id;sensor_type;location;lat;lon;timestamp;P1;durP1;ratioP1;P2;durP2;ratioP2
5483;SDS011;2764;48.794;8.326;2022-09-01T00:00:53;21.87;;;16.67;;
5483;SDS011;2764;48.794;8.326;2022-09-01T00:01:54;22.73;;;18.33;;
5483;SDS011;2764;48.794;8.326;2022-09-01T00:02:56;20.10;;;17.70;;
5483;SDS011;2764;48.794;8.326;2022-09-01T00:03:58;21.90;;;19.50;;
5483;SDS011;2764;48.794;8.326;2022-09-01T00:05:04;20.47;;;18.27;;
5483;SDS011;2764;48.794;8.326;2022-09-01T00:06:08;22.63;;;19.60;;
5483;SDS011;2764;48.794;8.326;2022-09-01T00:07:10;27.10;;;18.93;;
5483;SDS011;2764;48.794;8.326;2022-09-01T00:08:13;18.30;;;15.67;;
5483;SDS011;2764;48.794;8.326;2022-09-01T00:09:19;20.43;;;18.33;;
5483;SDS011;2764;48.794;8.326;2022-09-01T00:10:22;24.23;;;18.47;;
5483;SDS011;2764;48.794;8.326;2022-09-01T00:11:25;20.30;;;18.17;;
5483;SDS011;2764;48.794;8.326;2022-09-01T00:12:28;23.20;;;17.57;;
5483;SDS011;2764;48.794;8.326;2022-09-01T00:13:30;22.37;;;18.73;;
5483;SDS011;2764;48.794;8.326;2022-09-01T00:14:35;20.23;;;18.43;;
5483;SDS011;2764;48.794;8.326;2022-09-01T00:15:41;22.93;;;18.60;;
5483;SDS011;2764;48.794;8.326;2022-09-01T00:16:43;20.00;;;18.00;;
5483;SDS011;2764;48.794;8.326;2022-09-01T00:17:48;20.60;;;18.40;;
5483;SDS011;2764;48.794;8.326;2022-09-01T00:18:51;19.47;;;17.53;;
5483;SDS011;2764;48.794;8.326;2022-09-01T00:19:54;24.00;;;18.63;;
5483;SDS011;2764;48.794;8.326;2022-09-01T00:20:55;25.40;;;19.13;;
5483;SDS011;2764;48.794;8.326;2022-09-01T00:21:59;20.83;;;18.80;;
5483;SDS011;2764;48.794;8.326;2022-09-01T00:23:02;23.70;;;17.53;;
5483;SDS011;2764;48.794;8.326;2022-09-01T00:24:04;31.30;;;18.93;;
5483;SDS011;2764;48.794;8.326;2022-09-01T00:25:06;20.93;;;18.80;;
5483;SDS011;2764;48.794;8.326;2022-09-01T00:26:08;24.07;;;18.40;;
5483;SDS011;2764;48.794;8.326;2022-09-01T00:27:10;27.03;;;18.90;;
5483;SDS011;2764;48.794;8.326;2022-09-01T00:28:13;18.70;;;16.90;;
5483;SDS011;2764;48.794;8.326;2022-09-01T00:29:14;20.87;;;18.83;;
5483;SDS011;2764;48.794;8.326;2022-09-01T00:30:16;32.87;;;19.70;;
5483;SDS011;2764;48.794;8.326;2022-09-01T00:31:19;25.43;;;19.23;;
5483;SDS011;2764;48.794;8.326;2022-09-01T00:32:21;27.03;;;19.90;;
5483;SDS011;2764;48.794;8.326;2022-09-01T00:33:23;27.27;;;18.43;;
5483;SDS011;2764;48.794;8.326;2022-09-01T00:34:24;27.47;;;19.40;;
5483;SDS011;2764;48.794;8.326;2022-09-01T00:35:26;22.03;;;18.07;;
5483;SDS011;2764;48.794;8.326;2022-09-01T00:36:28;23.13;;;20.57;;
5483;SDS011;2764;48.794;8.326;2022-09-01T00:37:30;21.30;;;19.03;;
5483;SDS011;2764;48.794;8.326;2022-09-01T00:38:32;22.63;;;20.27;;
5483;SDS011;2764;48.794;8.326;2022-09-01T00:39:34;21.70;;;19.20;;
5483;SDS011;2764;48.794;8.326;2022-09-01T00:40:36;22.07;;;19.87;;
5483;SDS011;2764;48.794;8.326;2022-09-01T00:41:38;24.30;;;19.90;;
5483;SDS011;2764;48.794;8.326;2022-09-01T00:42:43;27.23;;;21.70;;
5483;SDS011;2764;48.794;8.326;2022-09-01T00:43:46;22.83;;;20.50;;
5483;SDS011;2764;48.794;8.326;2022-09-01T00:44:56;23.60;;;20.50;;
5483;SDS011;2764;48.794;8.326;2022-09-01T00:45:58;24.10;;;20.90;;
5483;SDS011;2764;48.794;8.326;2022-09-01T00:47:00;25.20;;;20.03;;
5483;SDS011;2764;48.794;8.326;2022-09-01T00:48:03;26.90;;;19.87;;
5483;SDS011;2764;48.794;8.326;2022-09-01T00:49:08;20.63;;;18.50;;
5483;SDS011;2764;48.794;8.326;2022-09-01T00:50:16;20.57;;;18.10;;
5483;SDS011;2764;48.794;8.326;2022-09-01T00:51:19;19.17;;;17.10;;
5483;SDS011;2764;48.794;8.326;2022-09-01T00:52:23;20.07;;;17.80;;
5483;SDS011;2764;48.794;8.326;2022-09-01T00:53:37;18.87;;;17.07;;
5483;SDS011;2764;48.794;8.326;2022-09-01T00:54:46;19.03;;;17.03;;
5483;SDS011;2764;48.794;8.326;2022-09-01T00:55:51;25.07;;;18.63;;
5483;SDS011;2764;48.794;8.326;2022-09-01T00:56:53;21.17;;;18.87;;
5483;SDS011;2764;48.794;8.326;2022-09-01T00:57:58;24.17;;;20.40;;
5483;SDS011;2764;48.794;8.326;2022-09-01T00:59:01;25.03;;;19.50;;
5483;SDS011;2764;48.794;8.326;2022-09-01T01:00:13;21.57;;;19.27;;
5483;SDS011;2764;48.794;8.326;2022-09-01T01:01:17;21.83;;;19.60;;
5483;SDS011;2764;48.794;8.326;2022-09-01T01:02:20;20.80;;;18.63;;
5483;SDS011;2764;48.794;8.326;2022-09-01T01:03:22;22.07;;;19.70;;
5483;SDS011;2764;48.794;8.326;2022-09-01T01:04:24;26.30;;;19.80;;
5483;SDS011;2764;48.794;8.326;2022-09-01T01:05:33;22.87;;;18.20;;
5483;SDS011;2764;48.794;8.326;2022-09-01T01:06:44;20.07;;;17.60;;
5483;SDS011;2764;48.794;8.326;2022-09-01T01:07:50;21.00;;;18.80;;
5483;SDS011;2764;48.794;8.326;2022-09-01T01:08:52;20.10;;;18.20;;
5483;SDS011;2764;48.794;8.326;2022-09-01T01:10:00;25.13;;;18.30;;
5483;SDS011;2764;48.794;8.326;2022-09-01T01:11:10;21.77;;;19.47;;
5483;SDS011;2764;48.794;8.326;2022-09-01T01:12:18;32.80;;;18.23;;
5483;SDS011;2764;48.794;8.326;2022-09-01T01:13:20;23.40;;;19.00;;
5483;SDS011;2764;48.794;8.326;2022-09-01T01:14:24;26.83;;;19.33;;
5483;SDS011;2764;48.794;8.326;2022-09-01T01:15:29;23.97;;;19.97;;
5483;SDS011;2764;48.794;8.326;2022-09-01T01:16:30;22.50;;;17.47;;
5483;SDS011;2764;48.794;8.326;2022-09-01T01:17:32;22.60;;;20.20;;
5483;SDS011;2764;48.794;8.326;2022-09-01T01:18:34;21.53;;;19.20;;
5483;SDS011;2764;48.794;8.326;2022-09-01T01:19:39;25.70;;;19.10;;
5483;SDS011;2764;48.794;8.326;2022-09-01T01:21:03;23.53;;;21.03;;
5483;SDS011;2764;48.794;8.326;2022-09-01T01:22:40;21.67;;;19.47;;
5483;SDS011;2764;48.794;8.326;2022-09-01T01:24:25;21.53;;;19.20;;
5483;SDS011;2764;48.794;8.326;2022-09-01T01:25:25;25.40;;;21.10;;
5483;SDS011;2764;48.794;8.326;2022-09-01T01:26:27;22.37;;;19.43;;
5483;SDS011;2764;48.794;8.326;2022-09-01T01:27:32;26.03;;;21.00;;
5483;SDS011;2764;48.794;8.326;2022-09-01T01:28:43;27.20;;;20.53;;
5483;SDS011;2764;48.794;8.326;2022-09-01T01:29:45;27.43;;;19.77;;
5483;SDS011;2764;48.794;8.326;2022-09-01T01:30:49;23.67;;;20.30;;
5483;SDS011;2764;48.794;8.326;2022-09-01T01:31:53;22.53;;;18.70;;
5483;SDS011;2764;48.794;8.326;2022-09-01T01:32:54;24.07;;;19.50;;
5483;SDS011;2764;48.794;8.326;2022-09-01T01:33:58;27.97;;;20.43;;
5483;SDS011;2764;48.794;8.326;2022-09-01T01:35:00;21.70;;;19.40;;
5483;SDS011;2764;48.794;8.326;2022-09-01T01:36:28;25.40;;;19.90;;
5483;SDS011;2764;48.794;8.326;2022-09-01T01:37:33;36.30;;;19.63;;
5483;SDS011;2764;48.794;8.326;2022-09-01T01:38:37;22.50;;;20.20;;
5483;SDS011;2764;48.794;8.326;2022-09-01T01:39:44;22.27;;;19.87;;
5483;SDS011;2764;48.794;8.326;2022-09-01T01:40:47;21.30;;;19.10;;
5483;SDS011;2764;48.794;8.326;2022-09-01T01:41:50;21.47;;;19.40;;
5483;SDS011;2764;48.794;8.326;2022-09-01T01:42:54;22.83;;;18.70;;
5483;SDS011;2764;48.794;8.326;2022-09-01T01:43:58;21.00;;;19.00;;
5483;SDS011;2764;48.794;8.326;2022-09-01T01:45:01;26.83;;;21.00;;
5483;SDS011;2764;48.794;8.326;2022-09-01T01:46:05;27.53;;;21.73;;
5483;SDS011;2764;48.794;8.326;2022-09-01T01:47:10;21.53;;;19.23;;
5483;SDS011;2764;48.794;8.326;2022-09-01T01:48:13;23.13;;;18.90;;
5483;SDS011;2764;48.794;8.326;2022-09-01T01:49:16;19.80;;;17.70;;
5483;SDS011;2764;48.794;8.326;2022-09-01T01:50:21;27.03;;;18.80;;
5483;SDS011;2764;48.794;8.326;2022-09-01T01:51:25;28.30;;;19.13;;
5483;SDS011;2764;48.794;8.326;2022-09-01T01:52:28;29.73;;;19.27;;
5483;SDS011;2764;48.794;8.326;2022-09-01T01:53:31;21.93;;;19.77;;
5483;SDS011;2764;48.794;8.326;2022-09-01T01:54:33;22.73;;;20.40;;
5483;SDS011;2764;48.794;8.326;2022-09-01T01:55:35;20.43;;;18.40;;
5483;SDS011;2764;48.794;8.326;2022-09-01T01:56:36;24.97;;;19.87;;
5483;SDS011;2764;48.794;8.326;2022-09-01T01:57:39;28.37;;;19.97;;
5483;SDS011;2764;48.794;8.326;2022-09-01T01:58:51;23.43;;;19.43;;
5483;SDS011;2764;48.794;8.326;2022-09-01T01:59:54;22.37;;;18.27;;
5483;SDS011;2764;48.794;8.326;2022-09-01T02:00:56;24.33;;;21.67;;
5483;SDS011;2764;48.794;8.326;2022-09-01T02:01:59;26.00;;;19.93;;
5483;SDS011;2764;48.794;8.326;2022-09-01T02:03:04;21.20;;;18.73;;
5483;SDS011;2764;48.794;8.326;2022-09-01T02:04:08;25.90;;;18.67;;
5483;SDS011;2764;48.794;8.326;2022-09-01T02:05:11;21.53;;;19.30;;
5483;SDS011;2764;48.794;8.326;2022-09-01T02:06:13;24.10;;;21.40;;
5483;SDS011;2764;48.794;8.326;2022-09-01T02:07:14;27.63;;;21.77;;
5483;SDS011;2764;48.794;8.326;2022-09-01T02:08:17;31.43;;;22.77;;
5483;SDS011;2764;48.794;8.326;2022-09-01T02:09:21;35.17;;;20.57;;
5483;SDS011;2764;48.794;8.326;2022-09-01T02:10:27;21.60;;;19.47;;
5483;SDS011;2764;48.794;8.326;2022-09-01T02:11:31;29.93;;;21.40;;
5483;SDS011;2764;48.794;8.326;2022-09-01T02:12:34;29.63;;;19.53;;
5483;SDS011;2764;48.794;8.326;2022-09-01T02:13:37;22.37;;;19.90;;
5483;SDS011;2764;48.794;8.326;2022-09-01T02:14:39;32.43;;;19.57;;
5483;SDS011;2764;48.794;8.326;2022-09-01T02:15:45;22.77;;;20.47;;
5483;SDS011;2764;48.794;8.326;2022-09-01T02:16:49;21.73;;;19.40;;
5483;SDS011;2764;48.794;8.326;2022-09-01T02:17:54;22.53;;;18.70;;
5483;SDS011;2764;48.794;8.326;2022-09-01T02:19:05;31.60;;;21.00;;
5483;SDS011;2764;48.794;8.326;2022-09-01T02:20:09;27.53;;;21.13;;
5483;SDS011;2764;48.794;8.326;2022-09-01T02:21:10;27.43;;;20.53;;
5483;SDS011;2764;48.794;8.326;2022-09-01T02:22:18;24.50;;;19.77;;
5483;SDS011;2764;48.794;8.326;2022-09-01T02:23:21;27.43;;;20.40;;
5483;SDS011;2764;48.794;8.326;2022-09-01T02:24:24;20.77;;;18.53;;
5483;SDS011;2764;48.794;8.326;2022-09-01T02:25:26;26.57;;;21.60;;
5483;SDS011;2764;48.794;8.326;2022-09-01T02:26:36;27.00;;;24.10;;
5483;SDS011;2764;48.794;8.326;2022-09-01T02:27:39;27.87;;;23.23;;
5483;SDS011;2764;48.794;8.326;2022-09-01T02:28:43;27.10;;;23.00;;
5483;SDS011;2764;48.794;8.326;2022-09-01T02:29:54;32.33;;;23.70;;
5483;SDS011;2764;48.794;8.326;2022-09-01T02:30:56;27.10;;;24.37;;
5483;SDS011;2764;48.794;8.326;2022-09-01T02:31:59;28.50;;;23.97;;
5483;SDS011;2764;48.794;8.326;2022-09-01T02:33:02;24.77;;;22.30;;
5483;SDS011;2764;48.794;8.326;2022-09-01T02:34:05;27.20;;;22.80;;
5483;SDS011;2764;48.794;8.326;2022-09-01T02:35:14;30.80;;;22.30;;
5483;SDS011;2764;48.794;8.326;2022-09-01T02:36:17;22.80;;;19.80;;
5483;SDS011;2764;48.794;8.326;2022-09-01T02:37:20;23.37;;;20.97;;
5483;SDS011;2764;48.794;8.326;2022-09-01T02:38:25;27.90;;;20.80;;
5483;SDS011;2764;48.794;8.326;2022-09-01T02:39:30;23.33;;;21.03;;
5483;SDS011;2764;48.794;8.326;2022-09-01T02:40:34;29.50;;;24.47;;
5483;SDS011;2764;48.794;8.326;2022-09-01T02:41:36;26.33;;;22.27;;
5483;SDS011;2764;48.794;8.326;2022-09-01T02:42:37;24.80;;;21.70;;
5483;SDS011;2764;48.794;8.326;2022-09-01T02:43:43;27.07;;;21.33;;
5483;SDS011;2764;48.794;8.326;2022-09-01T02:44:46;32.63;;;21.67;;
5483;SDS011;2764;48.794;8.326;2022-09-01T02:45:50;37.50;;;23.37;;
5483;SDS011;2764;48.794;8.326;2022-09-01T02:46:57;30.77;;;21.17;;
5483;SDS011;2764;48.794;8.326;2022-09-01T02:47:59;23.80;;;21.30;;
5483;SDS011;2764;48.794;8.326;2022-09-01T02:49:02;26.27;;;21.60;;
5483;SDS011;2764;48.794;8.326;2022-09-01T02:50:05;29.83;;;20.13;;
5483;SDS011;2764;48.794;8.326;2022-09-01T02:51:15;36.53;;;22.00;;
5483;SDS011;2764;48.794;8.326;2022-09-01T02:52:18;32.50;;;23.03;;
5483;SDS011;2764;48.794;8.326;2022-09-01T02:53:20;29.70;;;20.93;;
5483;SDS011;2764;48.794;8.326;2022-09-01T02:54:23;27.20;;;20.60;;
5483;SDS011;2764;48.794;8.326;2022-09-01T02:55:25;34.53;;;21.67;;
5483;SDS011;2764;48.794;8.326;2022-09-01T02:56:27;23.60;;;20.20;;
5483;SDS011;2764;48.794;8.326;2022-09-01T02:57:30;24.07;;;20.23;;
5483;SDS011;2764;48.794;8.326;2022-09-01T02:58:36;22.43;;;19.80;;
5483;SDS011;2764;48.794;8.326;2022-09-01T02:59:46;25.60;;;20.20;;
5483;SDS011;2764;48.794;8.326;2022-09-01T03:00:51;24.40;;;19.73;;
5483;SDS011;2764;48.794;8.326;2022-09-01T03:01:54;28.17;;;20.57;;
5483;SDS011;2764;48.794;8.326;2022-09-01T03:02:58;26.10;;;19.73;;
5483;SDS011;2764;48.794;8.326;2022-09-01T03:04:02;22.00;;;19.87;;
5483;SDS011;2764;48.794;8.326;2022-09-01T03:05:05;23.23;;;20.83;;
5483;SDS011;2764;48.794;8.326;2022-09-01T03:06:07;31.43;;;18.53;;
5483;SDS011;2764;48.794;8.326;2022-09-01T03:07:13;24.80;;;20.20;;
5483;SDS011;2764;48.794;8.326;2022-09-01T03:08:14;24.00;;;20.20;;
5483;SDS011;2764;48.794;8.326;2022-09-01T03:09:17;32.00;;;21.97;;
5483;SDS011;2764;48.794;8.326;2022-09-01T03:10:19;22.73;;;20.20;;
5483;SDS011;2764;48.794;8.326;2022-09-01T03:11:25;21.40;;;19.10;;
5483;SDS011;2764;48.794;8.326;2022-09-01T03:12:28;30.17;;;22.20;;
5483;SDS011;2764;48.794;8.326;2022-09-01T03:13:30;22.80;;;18.40;;
5483;SDS011;2764;48.794;8.326;2022-09-01T03:14:31;22.47;;;18.73;;
5483;SDS011;2764;48.794;8.326;2022-09-01T03:15:33;22.37;;;19.17;;
5483;SDS011;2764;48.794;8.326;2022-09-01T03:16:36;21.63;;;19.37;;
5483;SDS011;2764;48.794;8.326;2022-09-01T03:17:39;24.50;;;20.80;;
5483;SDS011;2764;48.794;8.326;2022-09-01T03:18:41;25.40;;;21.33;;
5483;SDS011;2764;48.794;8.326;2022-09-01T03:19:43;35.13;;;22.23;;
5483;SDS011;2764;48.794;8.326;2022-09-01T03:20:47;22.70;;;20.10;;
5483;SDS011;2764;48.794;8.326;2022-09-01T03:21:51;25.13;;;20.83;;
5483;SDS011;2764;48.794;8.326;2022-09-01T03:22:52;21.27;;;19.07;;
5483;SDS011;2764;48.794;8.326;2022-09-01T03:23:54;24.00;;;21.53;;
5483;SDS011;2764;48.794;8.326;2022-09-01T03:24:58;20.03;;;18.03;;
5483;SDS011;2764;48.794;8.326;2022-09-01T03:26:00;26.80;;;20.90;;
5483;SDS011;2764;48.794;8.326;2022-09-01T03:27:02;31.50;;;19.97;;
5483;SDS011;2764;48.794;8.326;2022-09-01T03:28:04;22.23;;;19.83;;
5483;SDS011;2764;48.794;8.326;2022-09-01T03:29:07;24.53;;;21.13;;
5483;SDS011;2764;48.794;8.326;2022-09-01T03:30:09;23.47;;;20.20;;
5483;SDS011;2764;48.794;8.326;2022-09-01T03:31:11;23.97;;;20.53;;
5483;SDS011;2764;48.794;8.326;2022-09-01T03:32:13;23.50;;;21.00;;
5483;SDS011;2764;48.794;8.326;2022-09-01T03:33:15;28.20;;;20.60;;
5483;SDS011;2764;48.794;8.326;2022-09-01T03:34:18;24.93;;;20.73;;
5483;SDS011;2764;48.794;8.326;2022-09-01T03:35:22;23.83;;;19.93;;
5483;SDS011;2764;48.794;8.326;2022-09-01T03:36:25;21.20;;;19.00;;
5483;SDS011;2764;48.794;8.326;2022-09-01T03:37:28;25.13;;;20.90;;
5483;SDS011;2764;48.794;8.326;2022-09-01T03:38:30;23.47;;;21.07;;
5483;SDS011;2764;48.794;8.326;2022-09-01T03:39:34;21.73;;;19.40;;
5483;SDS011;2764;48.794;8.326;2022-09-01T03:40:39;28.40;;;21.90;;
5483;SDS011;2764;48.794;8.326;2022-09-01T03:41:41;24.23;;;20.30;;
5483;SDS011;2764;48.794;8.326;2022-09-01T03:42:43;24.53;;;21.37;;
5483;SDS011;2764;48.794;8.326;2022-09-01T03:43:45;25.93;;;21.47;;
5483;SDS011;2764;48.794;8.326;2022-09-01T03:44:48;24.30;;;20.37;;
5483;SDS011;2764;48.794;8.326;2022-09-01T03:45:52;22.37;;;20.07;;
5483;SDS011;2764;48.794;8.326;2022-09-01T03:46:55;22.20;;;18.23;;
5483;SDS011;2764;48.794;8.326;2022-09-01T03:47:59;20.43;;;18.30;;
5483;SDS011;2764;48.794;8.326;2022-09-01T03:49:01;27.53;;;19.60;;
5483;SDS011;2764;48.794;8.326;2022-09-01T03:50:08;29.00;;;20.23;;
5483;SDS011;2764;48.794;8.326;2022-09-01T03:51:20;31.60;;;23.63;;
5483;SDS011;2764;48.794;8.326;2022-09-01T03:52:24;25.93;;;21.90;;
5483;SDS011;2764;48.794;8.326;2022-09-01T03:53:26;26.47;;;23.43;;
5483;SDS011;2764;48.794;8.326;2022-09-01T03:54:27;24.90;;;22.23;;
5483;SDS011;2764;48.794;8.326;2022-09-01T03:55:31;23.67;;;21.17;;
5483;SDS011;2764;48.794;8.326;2022-09-01T03:56:34;29.73;;;22.73;;
5483;SDS011;2764;48.794;8.326;2022-09-01T03:57:36;25.20;;;22.50;;
5483;SDS011;2764;48.794;8.326;2022-09-01T03:58:43;27.57;;;23.30;;
5483;SDS011;2764;48.794;8.326;2022-09-01T03:59:47;43.30;;;23.90;;
5483;SDS011;2764;48.794;8.326;2022-09-01T04:00:50;37.43;;;25.80;;
5483;SDS011;2764;48.794;8.326;2022-09-01T04:01:55;29.60;;;22.70;;
5483;SDS011;2764;48.794;8.326;2022-09-01T04:03:03;33.30;;;23.90;;
5483;SDS011;2764;48.794;8.326;2022-09-01T04:04:08;37.70;;;27.20;;
5483;SDS011;2764;48.794;8.326;2022-09-01T04:05:14;37.90;;;25.10;;
5483;SDS011;2764;48.794;8.326;2022-09-01T04:06:15;37.53;;;26.57;;
5483;SDS011;2764;48.794;8.326;2022-09-01T04:07:19;41.80;;;26.80;;
5483;SDS011;2764;48.794;8.326;2022-09-01T04:08:21;29.23;;;24.17;;
5483;SDS011;2764;48.794;8.326;2022-09-01T04:09:32;29.80;;;24.47;;
5483;SDS011;2764;48.794;8.326;2022-09-01T04:10:37;25.93;;;23.20;;
5483;SDS011;2764;48.794;8.326;2022-09-01T04:11:54;25.60;;;20.90;;
5483;SDS011;2764;48.794;8.326;2022-09-01T04:12:55;24.30;;;21.73;;
5483;SDS011;2764;48.794;8.326;2022-09-01T04:13:59;36.40;;;21.90;;
5483;SDS011;2764;48.794;8.326;2022-09-01T04:15:02;24.93;;;21.67;;
5483;SDS011;2764;48.794;8.326;2022-09-01T04:16:04;24.47;;;21.73;;
5483;SDS011;2764;48.794;8.326;2022-09-01T04:17:32;25.67;;;23.07;;
5483;SDS011;2764;48.794;8.326;2022-09-01T04:18:52;33.50;;;22.17;;
5483;SDS011;2764;48.794;8.326;2022-09-01T04:19:54;29.27;;;21.43;;
5483;SDS011;2764;48.794;8.326;2022-09-01T04:20:57;31.03;;;24.50;;
5483;SDS011;2764;48.794;8.326;2022-09-01T04:21:59;27.03;;;20.87;;
5483;SDS011;2764;48.794;8.326;2022-09-01T04:23:01;26.90;;;23.10;;
5483;SDS011;2764;48.794;8.326;2022-09-01T04:24:11;28.13;;;22.20;;
5483;SDS011;2764;48.794;8.326;2022-09-01T04:25:16;25.63;;;21.40;;
5483;SDS011;2764;48.794;8.326;2022-09-01T04:26:23;24.70;;;21.83;;
5483;SDS011;2764;48.794;8.326;2022-09-01T04:27:27;23.67;;;18.20;;
5483;SDS011;2764;48.794;8.326;2022-09-01T04:28:31;22.27;;;19.37;;
5483;SDS011;2764;48.794;8.326;2022-09-01T04:29:34;27.53;;;21.20;;
5483;SDS011;2764;48.794;8.326;2022-09-01T04:30:38;27.33;;;21.80;;
5483;SDS011;2764;48.794;8.326;2022-09-01T04:31:47;27.40;;;21.03;;
5483;SDS011;2764;48.794;8.326;2022-09-01T04:32:56;32.13;;;20.20;;
5483;SDS011;2764;48.794;8.326;2022-09-01T04:33:58;24.13;;;21.03;;
5483;SDS011;2764;48.794;8.326;2022-09-01T04:35:00;28.10;;;20.87;;
5483;SDS011;2764;48.794;8.326;2022-09-01T04:36:03;26.07;;;22.33;;
5483;SDS011;2764;48.794;8.326;2022-09-01T04:37:17;26.23;;;21.80;;
5483;SDS011;2764;48.794;8.326;2022-09-01T04:38:22;28.37;;;20.63;;
5483;SDS011;2764;48.794;8.326;2022-09-01T04:39:25;23.77;;;20.70;;
5483;SDS011;2764;48.794;8.326;2022-09-01T04:40:28;26.03;;;20.67;;
5483;SDS011;2764;48.794;8.326;2022-09-01T04:41:31;28.27;;;22.73;;
5483;SDS011;2764;48.794;8.326;2022-09-01T04:42:33;23.27;;;20.77;;
5483;SDS011;2764;48.794;8.326;2022-09-01T04:43:35;35.47;;;21.60;;
5483;SDS011;2764;48.794;8.326;2022-09-01T04:44:37;24.50;;;21.30;;
5483;SDS011;2764;48.794;8.326;2022-09-01T04:45:41;32.13;;;21.50;;
5483;SDS011;2764;48.794;8.326;2022-09-01T04:46:43;24.50;;;20.80;;
5483;SDS011;2764;48.794;8.326;2022-09-01T04:47:51;34.90;;;23.73;;
5483;SDS011;2764;48.794;8.326;2022-09-01T04:48:55;24.93;;;21.70;;
5483;SDS011;2764;48.794;8.326;2022-09-01T04:49:58;38.10;;;22.50;;
5483;SDS011;2764;48.794;8.326;2022-09-01T04:51:00;28.93;;;22.50;;
5483;SDS011;2764;48.794;8.326;2022-09-01T04:52:02;25.80;;;23.10;;
5483;SDS011;2764;48.794;8.326;2022-09-01T04:53:06;26.03;;;21.10;;
5483;SDS011;2764;48.794;8.326;2022-09-01T04:54:12;25.67;;;22.20;;
5483;SDS011;2764;48.794;8.326;2022-09-01T04:55:14;29.73;;;23.63;;
5483;SDS011;2764;48.794;8.326;2022-09-01T04:56:19;25.63;;;22.63;;
5483;SDS011;2764;48.794;8.326;2022-09-01T04:57:25;27.93;;;24.97;;
5483;SDS011;2764;48.794;8.326;2022-09-01T04:58:29;33.53;;;26.20;;
5483;SDS011;2764;48.794;8.326;2022-09-01T04:59:31;32.47;;;27.77;;
5483;SDS011;2764;48.794;8.326;2022-09-01T05:00:34;28.37;;;24.43;;
5483;SDS011;2764;48.794;8.326;2022-09-01T05:01:35;30.67;;;27.17;;
5483;SDS011;2764;48.794;8.326;2022-09-01T05:02:43;33.03;;;26.20;;
5483;SDS011;2764;48.794;8.326;2022-09-01T05:03:47;34.40;;;27.37;;
5483;SDS011;2764;48.794;8.326;2022-09-01T05:04:56;40.97;;;30.73;;
5483;SDS011;2764;48.794;8.326;2022-09-01T05:05:58;42.33;;;31.30;;
5483;SDS011;2764;48.794;8.326;2022-09-01T05:07:03;36.73;;;30.33;;
5483;SDS011;2764;48.794;8.326;2022-09-01T05:08:05;36.60;;;29.57;;
5483;SDS011;2764;48.794;8.326;2022-09-01T05:09:09;37.87;;;28.57;;
5483;SDS011;2764;48.794;8.326;2022-09-01T05:10:12;39.63;;;30.50;;
5483;SDS011;2764;48.794;8.326;2022-09-01T05:11:14;33.03;;;26.07;;
5483;SDS011;2764;48.794;8.326;2022-09-01T05:12:18;29.97;;;26.57;;
5483;SDS011;2764;48.794;8.326;2022-09-01T05:13:22;30.77;;;25.40;;
5483;SDS011;2764;48.794;8.326;2022-09-01T05:14:24;28.87;;;23.87;;
5483;SDS011;2764;48.794;8.326;2022-09-01T05:15:26;26.90;;;22.10;;
5483;SDS011;2764;48.794;8.326;2022-09-01T05:16:27;27.97;;;24.67;;
5483;SDS011;2764;48.794;8.326;2022-09-01T05:17:29;28.43;;;22.83;;
5483;SDS011;2764;48.794;8.326;2022-09-01T05:18:31;28.60;;;24.70;;
5483;SDS011;2764;48.794;8.326;2022-09-01T05:19:32;26.17;;;23.40;;
5483;SDS011;2764;48.794;8.326;2022-09-01T05:20:38;26.10;;;23.27;;
5483;SDS011;2764;48.794;8.326;2022-09-01T05:21:44;24.80;;;22.10;;
5483;SDS011;2764;48.794;8.326;2022-09-01T05:22:47;27.17;;;22.87;;
5483;SDS011;2764;48.794;8.326;2022-09-01T05:23:49;27.43;;;22.70;;
5483;SDS011;2764;48.794;8.326;2022-09-01T05:24:52;33.90;;;23.97;;
5483;SDS011;2764;48.794;8.326;2022-09-01T05:25:55;29.30;;;24.87;;
5483;SDS011;2764;48.794;8.326;2022-09-01T05:26:57;27.03;;;24.17;;
5483;SDS011;2764;48.794;8.326;2022-09-01T05:28:00;33.53;;;25.43;;
5483;SDS011;2764;48.794;8.326;2022-09-01T05:29:03;28.63;;;25.00;;
5483;SDS011;2764;48.794;8.326;2022-09-01T05:30:10;29.07;;;25.80;;
5483;SDS011;2764;48.794;8.326;2022-09-01T05:31:12;31.80;;;24.83;;
5483;SDS011;2764;48.794;8.326;2022-09-01T05:32:14;29.00;;;24.10;;
5483;SDS011;2764;48.794;8.326;2022-09-01T05:33:16;39.20;;;25.30;;
5483;SDS011;2764;48.794;8.326;2022-09-01T05:34:22;33.70;;;24.07;;
5483;SDS011;2764;48.794;8.326;2022-09-01T05:35:27;28.43;;;24.30;;
5483;SDS011;2764;48.794;8.326;2022-09-01T05:36:33;30.77;;;25.10;;
5483;SDS011;2764;48.794;8.326;2022-09-01T05:37:35;28.90;;;22.67;;
5483;SDS011;2764;48.794;8.326;2022-09-01T05:38:40;28.03;;;23.80;;
5483;SDS011;2764;48.794;8.326;2022-09-01T05:39:42;30.20;;;25.67;;
5483;SDS011;2764;48.794;8.326;2022-09-01T05:40:44;40.03;;;26.60;;
5483;SDS011;2764;48.794;8.326;2022-09-01T05:41:46;43.63;;;27.10;;
5483;SDS011;2764;48.794;8.326;2022-09-01T05:42:49;29.40;;;24.77;;
5483;SDS011;2764;48.794;8.326;2022-09-01T05:43:52;32.27;;;24.37;;
5483;SDS011;2764;48.794;8.326;2022-09-01T05:45:00;34.83;;;25.50;;
5483;SDS011;2764;48.794;8.326;2022-09-01T05:46:06;38.87;;;27.40;;
5483;SDS011;2764;48.794;8.326;2022-09-01T05:47:09;31.73;;;26.77;;
5483;SDS011;2764;48.794;8.326;2022-09-01T05:48:21;26.10;;;23.00;;
5483;SDS011;2764;48.794;8.326;2022-09-01T05:49:24;36.20;;;26.07;;
5483;SDS011;2764;48.794;8.326;2022-09-01T05:50:27;31.13;;;24.73;;
5483;SDS011;2764;48.794;8.326;2022-09-01T05:51:29;32.73;;;25.53;;
5483;SDS011;2764;48.794;8.326;2022-09-01T05:52:46;26.97;;;24.07;;
5483;SDS011;2764;48.794;8.326;2022-09-01T05:53:49;32.47;;;26.60;;
5483;SDS011;2764;48.794;8.326;2022-09-01T05:54:55;34.00;;;24.87;;
5483;SDS011;2764;48.794;8.326;2022-09-01T05:56:05;29.87;;;23.40;;
5483;SDS011;2764;48.794;8.326;2022-09-01T05:57:09;28.17;;;25.23;;
5483;SDS011;2764;48.794;8.326;2022-09-01T05:58:31;26.47;;;23.47;;
5483;SDS011;2764;48.794;8.326;2022-09-01T05:59:54;30.50;;;25.20;;
5483;SDS011;2764;48.794;8.326;2022-09-01T06:00:56;41.20;;;26.33;;
5483;SDS011;2764;48.794;8.326;2022-09-01T06:01:59;28.30;;;25.30;;
5483;SDS011;2764;48.794;8.326;2022-09-01T06:03:01;34.40;;;28.20;;
5483;SDS011;2764;48.794;8.326;2022-09-01T06:04:05;29.60;;;26.40;;
5483;SDS011;2764;48.794;8.326;2022-09-01T06:05:09;27.23;;;24.20;;
5483;SDS011;2764;48.794;8.326;2022-09-01T06:06:11;30.43;;;25.77;;
5483;SDS011;2764;48.794;8.326;2022-09-01T06:07:13;26.63;;;23.73;;
5483;SDS011;2764;48.794;8.326;2022-09-01T06:08:25;29.20;;;23.33;;
5483;SDS011;2764;48.794;8.326;2022-09-01T06:09:29;27.73;;;23.80;;
5483;SDS011;2764;48.794;8.326;2022-09-01T06:10:30;28.23;;;24.63;;
5483;SDS011;2764;48.794;8.326;2022-09-01T06:11:34;30.53;;;23.60;;
5483;SDS011;2764;48.794;8.326;2022-09-01T06:12:35;36.53;;;22.93;;
5483;SDS011;2764;48.794;8.326;2022-09-01T06:13:37;26.47;;;23.63;;
5483;SDS011;2764;48.794;8.326;2022-09-01T06:14:43;30.20;;;21.77;;
5483;SDS011;2764;48.794;8.326;2022-09-01T06:15:45;28.33;;;24.20;;
5483;SDS011;2764;48.794;8.326;2022-09-01T06:16:48;30.97;;;25.30;;
5483;SDS011;2764;48.794;8.326;2022-09-01T06:17:49;30.37;;;24.10;;
5483;SDS011;2764;48.794;8.326;2022-09-01T06:18:51;28.63;;;23.90;;
5483;SDS011;2764;48.794;8.326;2022-09-01T06:19:55;32.43;;;22.57;;
5483;SDS011;2764;48.794;8.326;2022-09-01T06:20:57;25.83;;;22.47;;
5483;SDS011;2764;48.794;8.326;2022-09-01T06:21:59;26.13;;;20.70;;
5483;SDS011;2764;48.794;8.326;2022-09-01T06:23:02;25.07;;;20.60;;
5483;SDS011;2764;48.794;8.326;2022-09-01T06:24:04;25.97;;;19.77;;
5483;SDS011;2764;48.794;8.326;2022-09-01T06:25:07;24.27;;;19.00;;
5483;SDS011;2764;48.794;8.326;2022-09-01T06:26:20;20.70;;;18.60;;
5483;SDS011;2764;48.794;8.326;2022-09-01T06:27:27;20.40;;;17.00;;
5483;SDS011;2764;48.794;8.326;2022-09-01T06:28:29;23.50;;;16.33;;